createdAt,value
2018-12-26T00:02:07.580Z,3.17
2018-12-26T00:04:36.052Z,3.57
2018-12-26T00:07:04.255Z,3.10
2018-12-26T00:09:32.795Z,2.50
2018-12-26T00:12:01.392Z,2.30
2018-12-26T00:14:29.910Z,2.80
2018-12-26T00:16:58.371Z,2.60
2018-12-26T00:19:26.870Z,2.60
2018-12-26T00:21:55.414Z,2.40
2018-12-26T00:24:23.567Z,2.60
2018-12-26T00:26:52.042Z,2.93
2018-12-26T00:29:20.202Z,2.37
2018-12-26T00:31:48.344Z,2.70
2018-12-26T00:34:16.834Z,2.50
2018-12-26T00:36:45.308Z,3.00
2018-12-26T00:39:13.823Z,5.20
2018-12-26T00:41:42.284Z,4.57
2018-12-26T00:44:11.060Z,4.30
2018-12-26T00:46:39.540Z,4.10
2018-12-26T00:49:07.998Z,3.63
2018-12-26T00:51:36.500Z,4.17
2018-12-26T00:54:05.049Z,3.90
2018-12-26T00:56:33.537Z,4.13
2018-12-26T00:59:02.050Z,3.70
2018-12-26T01:01:30.945Z,4.40
2018-12-26T01:03:59.429Z,4.13
2018-12-26T01:06:27.662Z,4.30
2018-12-26T01:08:55.876Z,3.67
2018-12-26T01:11:24.355Z,3.80
2018-12-26T01:13:52.854Z,3.53
2018-12-26T01:16:21.367Z,3.97
2018-12-26T01:18:49.842Z,3.90
2018-12-26T01:21:17.962Z,4.03
2018-12-26T01:23:46.128Z,4.00
2018-12-26T01:26:19.138Z,3.77
2018-12-26T01:28:44.159Z,3.83
2018-12-26T01:31:12.919Z,3.60
2018-12-26T01:33:41.119Z,4.70
2018-12-26T01:36:09.607Z,4.57
2018-12-26T01:38:37.812Z,4.90
2018-12-26T01:41:06.329Z,4.87
2018-12-26T01:43:34.451Z,5.50
2018-12-26T01:46:02.961Z,5.10
2018-12-26T01:48:31.347Z,5.33
2018-12-26T01:50:59.521Z,5.77
2018-12-26T01:53:27.640Z,5.00
2018-12-26T01:55:56.080Z,5.40
2018-12-26T01:58:24.211Z,6.23
2018-12-26T02:00:52.370Z,4.87
2018-12-26T02:03:20.666Z,5.20
2018-12-26T02:05:48.896Z,5.57
2018-12-26T02:08:17.373Z,5.43
2018-12-26T02:10:45.914Z,5.63
2018-12-26T02:13:14.066Z,5.70
2018-12-26T02:15:42.228Z,6.37
2018-12-26T02:18:10.351Z,5.17
2018-12-26T02:20:38.520Z,6.17
2018-12-26T02:23:06.657Z,7.00
2018-12-26T02:25:35.099Z,6.17
2018-12-26T02:28:03.252Z,6.57
2018-12-26T02:30:31.402Z,6.63
2018-12-26T02:32:59.952Z,6.97
2018-12-26T02:35:28.101Z,7.47
2018-12-26T02:37:56.280Z,6.50
2018-12-26T02:40:24.426Z,5.90
2018-12-26T02:42:52.576Z,6.40
2018-12-26T02:45:20.747Z,5.97
2018-12-26T02:47:48.903Z,6.40
2018-12-26T02:50:17.051Z,6.30
2018-12-26T02:52:45.200Z,7.03
2018-12-26T02:55:13.690Z,6.93
2018-12-26T02:57:42.244Z,7.03
2018-12-26T03:00:10.707Z,6.70
2018-12-26T03:02:39.207Z,7.10
2018-12-26T03:05:07.399Z,7.27
2018-12-26T03:07:35.885Z,6.90
2018-12-26T03:10:04.904Z,7.10
2018-12-26T03:12:33.079Z,8.43
2018-12-26T03:15:01.289Z,7.33
2018-12-26T03:17:29.500Z,8.30
2018-12-26T03:19:57.658Z,8.40
2018-12-26T03:22:26.159Z,8.00
2018-12-26T03:24:54.296Z,8.50
2018-12-26T03:27:22.452Z,6.50
2018-12-26T03:29:50.615Z,7.13
2018-12-26T03:32:19.104Z,6.87
2018-12-26T03:34:47.885Z,7.40
2018-12-26T03:37:16.112Z,7.97
2018-12-26T03:39:44.330Z,7.70
2018-12-26T03:42:12.485Z,8.07
2018-12-26T03:44:41.218Z,8.03
2018-12-26T03:47:10.034Z,10.00
2018-12-26T03:49:38.520Z,8.83
2018-12-26T03:52:06.745Z,9.57
2018-12-26T03:54:34.877Z,9.47
2018-12-26T03:57:06.170Z,9.30
2018-12-26T03:59:32.976Z,8.90
2018-12-26T04:02:01.205Z,9.50
2018-12-26T04:04:29.743Z,8.80
2018-12-26T04:06:57.938Z,8.83
2018-12-26T04:09:26.173Z,9.50
2018-12-26T04:11:54.314Z,8.67
2018-12-26T04:14:22.467Z,8.27
2018-12-26T04:16:50.675Z,8.57
2018-12-26T04:19:18.831Z,9.30
2018-12-26T04:21:47.009Z,9.80
2018-12-26T04:24:15.197Z,9.83
2018-12-26T04:26:43.333Z,9.00
2018-12-26T04:29:11.757Z,9.07
2018-12-26T04:31:39.918Z,9.47
2018-12-26T04:34:08.056Z,9.23
2018-12-26T04:36:36.228Z,9.97
2018-12-26T04:39:06.433Z,9.80
2018-12-26T04:41:34.902Z,9.60
2018-12-26T04:44:03.082Z,9.90
2018-12-26T04:46:31.237Z,10.27
2018-12-26T04:48:59.386Z,10.53
2018-12-26T04:51:27.527Z,10.23
2018-12-26T04:53:55.687Z,9.30
2018-12-26T04:56:23.838Z,8.80
2018-12-26T04:58:52.308Z,9.97
2018-12-26T05:01:20.460Z,11.13
2018-12-26T05:03:48.926Z,12.33
2018-12-26T05:06:17.441Z,13.93
2018-12-26T05:08:45.572Z,12.47
2018-12-26T05:11:13.735Z,11.00
2018-12-26T05:13:41.891Z,11.03
2018-12-26T05:16:10.335Z,10.70
2018-12-26T05:18:38.478Z,9.63
2018-12-26T05:21:06.717Z,9.50
2018-12-26T05:23:35.550Z,9.37
2018-12-26T05:26:03.795Z,9.07
2018-12-26T05:28:32.500Z,9.23
2018-12-26T05:31:01.049Z,9.63
2018-12-26T05:33:29.528Z,9.27
2018-12-26T05:35:58.009Z,9.70
2018-12-26T05:38:26.188Z,9.73
2018-12-26T05:40:54.314Z,10.10
2018-12-26T05:43:22.460Z,10.40
2018-12-26T05:45:50.610Z,12.40
2018-12-26T05:48:18.755Z,11.47
2018-12-26T05:50:46.946Z,10.53
2018-12-26T05:53:15.080Z,10.37
2018-12-26T05:55:43.564Z,9.97
2018-12-26T05:58:11.739Z,10.57
2018-12-26T06:00:39.882Z,10.33
2018-12-26T06:03:08.054Z,10.33
2018-12-26T06:05:36.192Z,9.60
2018-12-26T06:08:04.355Z,11.13
2018-12-26T06:10:32.501Z,10.80
2018-12-26T06:13:00.667Z,10.53
2018-12-26T06:15:28.810Z,14.27
2018-12-26T06:17:56.970Z,10.87
2018-12-26T06:20:25.131Z,10.93
2018-12-26T06:22:53.331Z,9.27
2018-12-26T06:25:21.495Z,10.90
2018-12-26T06:27:51.607Z,10.17
2018-12-26T06:30:19.517Z,9.43
2018-12-26T06:32:47.642Z,9.47
2018-12-26T06:35:15.808Z,10.50
2018-12-26T06:37:43.943Z,10.90
2018-12-26T06:40:12.135Z,10.43
2018-12-26T06:42:40.901Z,11.10
2018-12-26T06:45:09.361Z,10.97
2018-12-26T06:47:37.531Z,10.17
2018-12-26T06:50:05.740Z,11.37
2018-12-26T06:52:34.223Z,11.20
2018-12-26T06:55:02.688Z,10.63
2018-12-26T06:57:31.433Z,10.50
2018-12-26T06:59:59.586Z,10.23
2018-12-26T07:02:27.731Z,10.60
2018-12-26T07:04:55.892Z,10.63
2018-12-26T07:07:24.037Z,10.77
2018-12-26T07:09:52.177Z,10.30
2018-12-26T07:12:20.347Z,11.43
2018-12-26T07:14:48.511Z,10.80
2018-12-26T07:17:16.652Z,11.10
2018-12-26T07:19:44.792Z,10.10
2018-12-26T07:22:13.272Z,10.60
2018-12-26T07:24:41.424Z,10.83
2018-12-26T07:27:10.281Z,11.20
2018-12-26T07:29:38.769Z,11.87
2018-12-26T07:32:07.257Z,10.00
2018-12-26T07:34:42.161Z,10.27
2018-12-26T07:37:05.949Z,11.70
2018-12-26T07:39:34.101Z,11.90
2018-12-26T07:42:02.247Z,11.03
2018-12-26T07:44:30.792Z,10.57
2018-12-26T07:46:58.916Z,10.70
2018-12-26T07:49:27.432Z,10.93
2018-12-26T07:51:55.578Z,10.30
2018-12-26T07:54:24.059Z,10.67
2018-12-26T07:56:52.552Z,10.40
2018-12-26T07:59:20.683Z,10.47
2018-12-26T08:01:48.836Z,10.47
2018-12-26T08:04:17.029Z,10.80
2018-12-26T08:06:45.345Z,10.67
2018-12-26T08:09:13.482Z,9.80
2018-12-26T08:11:41.631Z,9.10
2018-12-26T08:14:10.079Z,9.93
2018-12-26T08:16:38.578Z,9.90
2018-12-26T08:19:06.694Z,9.97
2018-12-26T08:21:35.212Z,11.77
2018-12-26T08:24:03.419Z,9.87
2018-12-26T08:26:31.559Z,10.70
2018-12-26T08:28:59.706Z,11.00
2018-12-26T08:31:27.861Z,11.13
2018-12-26T08:33:55.996Z,10.30
2018-12-26T08:36:24.155Z,10.70
2018-12-26T08:38:52.336Z,10.30
2018-12-26T08:41:20.554Z,11.33
2018-12-26T08:43:49.071Z,11.33
2018-12-26T08:46:17.886Z,10.60
2018-12-26T08:48:46.037Z,11.03
2018-12-26T08:51:14.192Z,11.17
2018-12-26T08:53:42.367Z,11.50
2018-12-26T08:56:10.601Z,11.87
2018-12-26T08:58:38.741Z,11.73
2018-12-26T09:01:06.922Z,11.67
2018-12-26T09:03:35.401Z,10.57
2018-12-26T09:06:03.908Z,10.43
2018-12-26T09:08:32.055Z,10.87
2018-12-26T09:11:00.212Z,12.17
2018-12-26T09:13:28.358Z,10.50
2018-12-26T09:15:56.511Z,11.57
2018-12-26T09:18:24.681Z,11.47
2018-12-26T09:20:52.824Z,11.17
2018-12-26T09:23:20.961Z,11.70
2018-12-26T09:25:49.902Z,11.97
2018-12-26T09:28:18.414Z,12.40
2018-12-26T09:30:46.897Z,11.77
2018-12-26T09:33:15.046Z,13.27
2018-12-26T09:35:43.212Z,12.77
2018-12-26T09:38:11.385Z,11.30
2018-12-26T09:40:39.529Z,11.80
2018-12-26T09:43:07.998Z,11.83
2018-12-26T09:45:36.489Z,12.00
2018-12-26T09:48:04.639Z,10.63
2018-12-26T09:50:33.108Z,11.90
2018-12-26T09:53:01.292Z,10.67
2018-12-26T09:55:29.439Z,22.03
2018-12-26T09:57:57.683Z,16.77
2018-12-26T10:00:25.826Z,12.70
2018-12-26T10:02:53.980Z,13.30
2018-12-26T10:05:22.135Z,12.73
2018-12-26T10:07:50.310Z,14.00
2018-12-26T10:10:18.524Z,13.27
2018-12-26T10:12:46.656Z,20.17
2018-12-26T10:15:15.136Z,20.97
2018-12-26T10:17:43.694Z,17.40
2018-12-26T10:20:11.878Z,15.03
2018-12-26T10:22:40.346Z,13.97
2018-12-26T10:25:08.490Z,14.00
2018-12-26T10:27:36.648Z,13.67
2018-12-26T10:30:07.091Z,13.33
2018-12-26T10:32:35.570Z,12.87
2018-12-26T10:35:03.804Z,13.40
2018-12-26T10:37:31.945Z,13.00
2018-12-26T10:40:00.165Z,14.67
2018-12-26T10:42:28.350Z,13.83
2018-12-26T10:44:56.491Z,14.27
2018-12-26T10:47:24.638Z,14.07
2018-12-26T10:49:52.804Z,13.17
2018-12-26T10:52:20.982Z,14.37
2018-12-26T10:54:49.462Z,15.07
2018-12-26T10:57:18.105Z,14.77
2018-12-26T10:59:46.580Z,13.83
2018-12-26T11:02:14.831Z,14.67
2018-12-26T11:04:42.945Z,14.90
2018-12-26T11:07:11.125Z,14.27
2018-12-26T11:09:39.270Z,14.87
2018-12-26T11:12:07.756Z,14.03
2018-12-26T11:14:36.247Z,15.37
2018-12-26T11:17:04.783Z,15.00
2018-12-26T11:19:32.930Z,15.43
2018-12-26T11:22:02.127Z,15.20
2018-12-26T11:24:30.699Z,15.10
2018-12-26T11:26:59.176Z,14.63
2018-12-26T11:29:27.326Z,14.50
2018-12-26T11:31:55.487Z,14.60
2018-12-26T11:34:23.758Z,13.80
2018-12-26T11:36:51.976Z,14.27
2018-12-26T11:39:20.219Z,14.63
2018-12-26T11:41:48.353Z,13.80
2018-12-26T11:44:16.865Z,14.30
2018-12-26T11:46:45.338Z,12.80
2018-12-26T11:49:13.484Z,13.57
2018-12-26T11:51:41.663Z,14.37
2018-12-26T11:54:09.824Z,14.10
2018-12-26T11:56:37.999Z,13.53
2018-12-26T11:59:06.301Z,15.00
2018-12-26T12:01:35.249Z,14.13
2018-12-26T12:04:03.824Z,16.67
2018-12-26T12:06:32.129Z,15.50
2018-12-26T12:09:00.333Z,14.57
2018-12-26T12:11:28.901Z,14.63
2018-12-26T12:13:57.447Z,14.10
2018-12-26T12:16:25.957Z,14.67
2018-12-26T12:18:54.095Z,14.27
2018-12-26T12:21:22.267Z,15.10
2018-12-26T12:23:50.473Z,14.20
2018-12-26T12:26:18.963Z,14.67
2018-12-26T12:28:47.436Z,13.40
2018-12-26T12:31:15.927Z,14.67
2018-12-26T12:33:44.153Z,14.20
2018-12-26T12:36:13.097Z,15.07
2018-12-26T12:38:41.833Z,14.43
2018-12-26T12:41:10.044Z,14.87
2018-12-26T12:43:38.557Z,13.97
2018-12-26T12:46:06.705Z,14.43
2018-12-26T12:48:38.453Z,14.83
2018-12-26T12:51:06.599Z,13.33
2018-12-26T12:53:34.830Z,13.67
2018-12-26T12:56:11.695Z,13.43
2018-12-26T12:58:33.286Z,14.30
2018-12-26T13:01:01.457Z,15.03
2018-12-26T13:03:29.922Z,14.20
2018-12-26T13:05:58.102Z,14.63
2018-12-26T13:08:26.308Z,13.33
2018-12-26T13:10:54.537Z,15.33
2018-12-26T13:13:22.670Z,14.40
2018-12-26T13:15:51.171Z,15.03
2018-12-26T13:18:19.302Z,14.00
2018-12-26T13:20:47.788Z,14.87
2018-12-26T13:23:16.269Z,12.80
2018-12-26T13:25:44.738Z,14.57
2018-12-26T13:28:13.246Z,15.33
2018-12-26T13:30:41.388Z,14.63
2018-12-26T13:33:09.543Z,14.47
2018-12-26T13:35:37.699Z,13.93
2018-12-26T13:38:05.838Z,14.37
2018-12-26T13:40:33.996Z,12.97
2018-12-26T13:43:02.149Z,14.50
2018-12-26T13:45:30.942Z,13.00
2018-12-26T13:47:59.407Z,13.60
2018-12-26T13:50:27.914Z,13.60
2018-12-26T13:52:56.069Z,14.07
2018-12-26T13:55:24.238Z,14.33
2018-12-26T13:57:52.383Z,14.50
2018-12-26T14:00:20.553Z,14.57
2018-12-26T14:02:49.397Z,13.77
2018-12-26T14:05:17.577Z,14.53
2018-12-26T14:07:45.731Z,14.00
2018-12-26T14:10:13.880Z,14.20
2018-12-26T14:12:42.304Z,15.23
2018-12-26T14:15:10.434Z,14.33
2018-12-26T14:17:38.568Z,14.20
2018-12-26T14:20:07.217Z,15.87
2018-12-26T14:22:35.911Z,14.53
2018-12-26T14:25:05.906Z,15.00
2018-12-26T14:27:34.694Z,13.57
2018-12-26T14:30:10.868Z,14.80
2018-12-26T14:32:32.761Z,14.57
2018-12-26T14:35:00.885Z,14.47
2018-12-26T14:37:29.041Z,14.43
2018-12-26T14:39:57.203Z,14.67
2018-12-26T14:42:25.357Z,14.97
2018-12-26T14:44:53.537Z,14.17
2018-12-26T14:47:22.079Z,14.30
2018-12-26T14:49:50.337Z,14.70
2018-12-26T14:52:18.800Z,13.93
2018-12-26T14:54:46.967Z,14.43
2018-12-26T14:57:15.098Z,14.17
2018-12-26T14:59:43.228Z,13.67
2018-12-26T15:02:11.405Z,14.33
2018-12-26T15:04:39.548Z,14.60
2018-12-26T15:07:07.690Z,15.23
2018-12-26T15:09:36.956Z,13.63
2018-12-26T15:12:05.155Z,14.23
2018-12-26T15:14:33.297Z,14.67
2018-12-26T15:17:01.477Z,14.17
2018-12-26T15:19:30.978Z,14.00
2018-12-26T15:21:59.113Z,14.47
2018-12-26T15:24:27.622Z,14.60
2018-12-26T15:26:55.777Z,13.03
2018-12-26T15:29:23.931Z,13.87
2018-12-26T15:31:52.071Z,13.23
2018-12-26T15:34:20.231Z,14.23
2018-12-26T15:36:48.355Z,13.20
2018-12-26T15:39:16.859Z,14.60
2018-12-26T15:41:44.998Z,15.80
2018-12-26T15:44:13.753Z,13.60
2018-12-26T15:46:41.924Z,15.20
2018-12-26T15:49:10.168Z,15.17
2018-12-26T15:51:38.337Z,15.13
2018-12-26T15:54:06.480Z,13.97
2018-12-26T15:56:34.635Z,14.63
2018-12-26T15:59:02.827Z,14.60
2018-12-26T16:01:31.265Z,15.80
2018-12-26T16:03:59.406Z,13.70
2018-12-26T16:06:27.571Z,13.93
2018-12-26T16:08:56.086Z,13.87
2018-12-26T16:11:24.514Z,13.50
2018-12-26T16:13:52.655Z,13.83
2018-12-26T16:16:20.816Z,12.97
2018-12-26T16:18:48.949Z,13.53
2018-12-26T16:21:17.357Z,14.53
2018-12-26T16:23:45.521Z,14.30
2018-12-26T16:26:14.300Z,12.53
2018-12-26T16:28:42.773Z,14.63
2018-12-26T16:31:10.903Z,14.27
2018-12-26T16:33:39.063Z,15.37
2018-12-26T16:36:07.211Z,17.77
2018-12-26T16:38:35.368Z,17.07
2018-12-26T16:41:03.516Z,15.63
2018-12-26T16:43:31.668Z,16.97
2018-12-26T16:45:59.812Z,16.70
2018-12-26T16:48:27.981Z,15.97
2018-12-26T16:50:56.449Z,14.80
2018-12-26T16:53:24.664Z,15.07
2018-12-26T16:55:53.161Z,14.63
2018-12-26T16:58:21.291Z,14.53
2018-12-26T17:00:54.969Z,13.43
2018-12-26T17:03:19.310Z,13.50
2018-12-26T17:05:47.742Z,13.13
2018-12-26T17:08:15.901Z,13.37
2018-12-26T17:10:44.073Z,13.43
2018-12-26T17:13:12.302Z,14.73
2018-12-26T17:15:40.435Z,14.90
2018-12-26T17:18:08.608Z,13.37
2018-12-26T17:20:37.085Z,12.83
2018-12-26T17:23:05.592Z,13.80
2018-12-26T17:25:34.065Z,12.00
2018-12-26T17:28:02.208Z,12.50
2018-12-26T17:30:30.357Z,12.40
2018-12-26T17:33:00.655Z,12.17
2018-12-26T17:35:28.386Z,11.70
2018-12-26T17:37:56.560Z,12.70
2018-12-26T17:40:24.701Z,12.47
2018-12-26T17:42:53.106Z,11.80
2018-12-26T17:45:22.869Z,10.73
2018-12-26T17:47:51.090Z,11.10
2018-12-26T17:50:40.796Z,11.03
2018-12-26T17:53:10.517Z,11.63
2018-12-26T17:55:49.627Z,11.80
2018-12-26T17:58:17.788Z,11.17
2018-12-26T18:00:47.482Z,12.07
2018-12-26T18:03:15.905Z,11.33
2018-12-26T18:05:44.054Z,11.83
2018-12-26T18:08:12.352Z,11.73
2018-12-26T18:10:40.838Z,11.77
2018-12-26T18:13:09.005Z,11.93
2018-12-26T18:15:37.163Z,10.90
2018-12-26T18:18:05.325Z,11.40
2018-12-26T18:20:33.470Z,10.07
2018-12-26T18:23:01.622Z,9.47
2018-12-26T18:25:30.163Z,8.17
2018-12-26T18:27:58.301Z,5.83
2018-12-26T18:30:26.456Z,7.53
2018-12-26T18:32:54.935Z,7.57
2018-12-26T18:35:23.084Z,9.23
2018-12-26T18:37:51.236Z,9.07
2018-12-26T18:40:19.367Z,8.67
2018-12-26T18:42:47.894Z,9.73
2018-12-26T18:45:16.029Z,10.70
2018-12-26T18:47:44.200Z,10.90
2018-12-26T18:50:12.656Z,11.43
2018-12-26T18:52:41.137Z,12.80
2018-12-26T18:55:09.568Z,11.23
2018-12-26T18:57:37.742Z,11.17
2018-12-26T19:00:07.626Z,10.57
2018-12-26T19:02:35.780Z,10.80
2018-12-26T19:05:04.528Z,9.97
2018-12-26T19:07:32.669Z,9.47
2018-12-26T19:10:01.134Z,10.17
2018-12-26T19:12:29.296Z,10.03
2018-12-26T19:14:57.755Z,8.93
2018-12-26T19:17:25.915Z,8.43
2018-12-26T19:19:54.043Z,7.53
2018-12-26T19:22:22.212Z,8.40
2018-12-26T19:24:50.636Z,6.90
2018-12-26T19:27:18.754Z,6.37
2018-12-26T19:29:47.175Z,3.93
2018-12-26T19:32:17.651Z,4.73
2018-12-26T19:34:45.795Z,2.70
2018-12-26T19:37:14.006Z,2.17
2018-12-26T19:39:42.237Z,1.80
2018-12-26T19:42:10.368Z,2.40
2018-12-26T19:44:38.510Z,2.10
2018-12-26T19:47:06.658Z,2.23
2018-12-26T19:49:34.799Z,2.10
2018-12-26T19:52:02.957Z,2.73
2018-12-26T19:54:31.127Z,2.07
2018-12-26T19:56:59.353Z,2.50
2018-12-26T19:59:27.513Z,2.97
2018-12-26T20:01:55.698Z,4.00
2018-12-26T20:04:24.162Z,3.50
2018-12-26T20:06:52.323Z,6.17
2018-12-26T20:09:20.500Z,7.13
2018-12-26T20:11:48.646Z,6.60
2018-12-26T20:14:16.792Z,11.33
2018-12-26T20:16:44.934Z,8.43
2018-12-26T20:19:13.087Z,8.67
2018-12-26T20:21:41.261Z,8.43
2018-12-26T20:24:09.414Z,8.10
2018-12-26T20:26:37.559Z,8.93
2018-12-26T20:29:05.999Z,8.30
2018-12-26T20:31:34.139Z,8.73
2018-12-26T20:34:02.643Z,8.23
2018-12-26T20:36:30.777Z,8.80
2018-12-26T20:38:59.234Z,8.60
2018-12-26T20:41:27.388Z,8.27
2018-12-26T20:43:55.532Z,8.60
2018-12-26T20:46:23.699Z,7.87
2018-12-26T20:48:51.856Z,5.80
2018-12-26T20:51:19.995Z,4.77
2018-12-26T20:53:50.002Z,5.70
2018-12-26T20:56:18.035Z,5.07
2018-12-26T20:58:46.246Z,3.37
2018-12-26T21:01:14.395Z,3.77
2018-12-26T21:03:42.558Z,2.40
2018-12-26T21:06:10.698Z,1.77
2018-12-26T21:08:38.836Z,1.73
2018-12-26T21:11:07.323Z,2.60
2018-12-26T21:13:35.799Z,2.20
2018-12-26T21:16:03.951Z,2.60
2018-12-26T21:18:32.108Z,4.40
2018-12-26T21:21:00.372Z,3.60
2018-12-26T21:23:28.562Z,1.70
2018-12-26T21:25:56.713Z,1.20
2018-12-26T21:28:24.911Z,1.77
2018-12-26T21:30:53.077Z,1.80
2018-12-26T21:33:21.346Z,0.70
2018-12-26T21:35:49.874Z,1.40
2018-12-26T21:38:18.023Z,1.10
2018-12-26T21:40:46.148Z,1.00
2018-12-26T21:43:14.391Z,1.30
2018-12-26T21:45:42.537Z,1.00
2018-12-26T21:48:10.699Z,0.77
2018-12-26T21:50:38.930Z,1.10
2018-12-26T21:53:07.150Z,1.00
2018-12-26T21:55:35.270Z,1.30
2018-12-26T21:58:03.427Z,3.77
2018-12-26T22:00:31.553Z,3.53
2018-12-26T22:02:59.683Z,4.47
2018-12-26T22:05:27.869Z,4.37
2018-12-26T22:07:56.021Z,1.90
2018-12-26T22:10:24.163Z,1.63
2018-12-26T22:12:52.635Z,1.10
2018-12-26T22:15:20.797Z,1.87
2018-12-26T22:17:48.948Z,1.47
2018-12-26T22:20:17.075Z,3.10
2018-12-26T22:22:45.281Z,2.77
2018-12-26T22:25:13.446Z,3.03
2018-12-26T22:27:41.581Z,2.27
2018-12-26T22:30:10.405Z,2.17
2018-12-26T22:32:38.919Z,3.53
2018-12-26T22:35:07.121Z,4.50
2018-12-26T22:37:35.269Z,3.93
2018-12-26T22:40:03.806Z,1.90
2018-12-26T22:42:31.976Z,1.23
2018-12-26T22:45:00.158Z,0.73
2018-12-26T22:47:28.362Z,1.00
2018-12-26T22:49:56.516Z,1.23
2018-12-26T22:52:24.862Z,1.67
2018-12-26T22:54:54.889Z,1.43
2018-12-26T22:57:23.756Z,1.40
2018-12-26T22:59:51.902Z,1.80
2018-12-26T23:02:20.027Z,1.93
2018-12-26T23:04:48.186Z,1.63
2018-12-26T23:07:16.315Z,1.27
2018-12-26T23:09:44.499Z,1.30
2018-12-26T23:12:12.645Z,1.20
2018-12-26T23:14:40.774Z,1.07
2018-12-26T23:17:08.931Z,1.20
2018-12-26T23:19:37.068Z,0.73
2018-12-26T23:22:05.220Z,0.80
2018-12-26T23:24:33.678Z,1.00
2018-12-26T23:27:02.094Z,0.70
2018-12-26T23:29:30.313Z,0.93
2018-12-26T23:31:58.469Z,0.70
2018-12-26T23:34:26.943Z,0.80
2018-12-26T23:36:55.090Z,0.87
2018-12-26T23:39:23.214Z,0.80
2018-12-26T23:41:51.367Z,0.73
2018-12-26T23:44:19.538Z,0.97
2018-12-26T23:46:47.704Z,0.80
2018-12-26T23:49:16.454Z,0.87
2018-12-26T23:51:44.848Z,1.43
2018-12-26T23:54:13.378Z,1.20
2018-12-26T23:56:41.593Z,0.80
2018-12-26T23:59:09.715Z,0.80
